Time;durP1;ratioP1;P1;durP2;ratioP2;P2;SDS_P1;SDS_P2;PMS_P1;PMS_P2;Temp;Humidity;BMP_temperature;BMP_pressure;BME280_temperature;BME280_humidity;BME280_pressure;Samples;Min_cycle;Max_cycle;Signal;HPM_P1;HPM_P2
2022/01/13 00:02:19;;;;;;;126.85;27.50;;;;;;;;;;4992382;28;91302;-68
2022/01/13 00:04:47;;;;;;;104.25;28.98;;;;;;;;;;4998072;28;89800;-68
2022/01/13 00:07:13;;;;;;;136.90;29.55;;;;;;;;;;4994328;28;89427;-68
2022/01/13 00:09:40;;;;;;;111.88;28.05;;;;;;;;;;4987603;28;89831;-68
2022/01/13 00:12:08;;;;;;;118.93;30.08;;;;;;;;;;4996157;28;89898;-68
2022/01/13 00:24:59;;;;;;;127.32;29.42;;;;;;;;;;5004255;28;89737;-67
2022/01/13 00:27:28;;;;;;;154.98;30.48;;;;;;;;;;5005370;28;90664;-68
2022/01/13 00:29:57;;;;;;;111.60;29.63;;;;;;;;;;4999456;28;89984;-68
2022/01/13 00:32:26;;;;;;;86.50;24.85;;;;;;;;;;4995758;28;90151;-68
2022/01/13 00:34:53;;;;;;;86.53;25.48;;;;;;;;;;4995478;28;90060;-68
2022/01/13 00:37:19;;;;;;;82.82;24.80;;;;;;;;;;4998615;28;89673;-68
2022/01/13 00:39:46;;;;;;;86.90;25.20;;;;;;;;;;4995682;28;89374;-68
2022/01/13 00:42:13;;;;;;;102.65;26.00;;;;;;;;;;4996333;28;90937;-68
2022/01/13 00:44:41;;;;;;;86.93;25.80;;;;;;;;;;4998274;28;89506;-68
2022/01/13 00:47:10;;;;;;;98.13;25.30;;;;;;;;;;4997056;28;90268;-68
2022/01/13 00:49:36;;;;;;;95.00;24.75;;;;;;;;;;4995134;28;90252;-68
2022/01/13 00:52:04;;;;;;;67.35;21.25;;;;;;;;;;5004076;28;89698;-68
2022/01/13 00:54:32;;;;;;;61.08;21.02;;;;;;;;;;4995183;28;91117;-68
2022/01/13 00:56:58;;;;;;;55.30;21.42;;;;;;;;;;5000698;28;90652;-68
2022/01/13 00:59:25;;;;;;;76.32;24.42;;;;;;;;;;4995352;28;89160;-69
2022/01/13 01:01:53;;;;;;;62.30;21.50;;;;;;;;;;4995403;28;90385;-67
2022/01/13 01:04:20;;;;;;;76.45;22.00;;;;;;;;;;4995207;28;89526;-67
2022/01/13 01:06:47;;;;;;;67.78;20.80;;;;;;;;;;4998868;28;89305;-69
2022/01/13 01:09:17;;;;;;;81.47;22.92;;;;;;;;;;5001177;28;89845;-67
2022/01/13 01:11:46;;;;;;;75.78;21.45;;;;;;;;;;4996653;28;89746;-67
2022/01/13 01:14:14;;;;;;;70.22;21.85;;;;;;;;;;4999897;28;89131;-67
2022/01/13 01:16:40;;;;;;;58.97;20.38;;;;;;;;;;4996471;28;90540;-67
2022/01/13 01:19:09;;;;;;;90.35;22.60;;;;;;;;;;4995549;28;89797;-67
2022/01/13 01:26:49;;;;;;;72.68;22.98;;;;;;;;;;4995350;28;89187;-68
2022/01/13 01:31:53;;;;;;;82.38;22.27;;;;;;;;;;4994716;28;89271;-68
2022/01/13 01:36:56;;;;;;;81.35;22.00;;;;;;;;;;4997150;28;90235;-68
2022/01/13 01:39:23;;;;;;;77.40;23.30;;;;;;;;;;4994261;28;89417;-68
2022/01/13 01:41:51;;;;;;;71.75;21.08;;;;;;;;;;5001666;28;90277;-68
2022/01/13 01:44:25;;;;;;;76.28;22.25;;;;;;;;;;4993914;28;89405;-68
2022/01/13 01:46:52;;;;;;;80.47;21.65;;;;;;;;;;4997679;28;90277;-68
2022/01/13 01:49:22;;;;;;;100.57;21.25;;;;;;;;;;4995199;28;90485;-68
2022/01/13 01:51:52;;;;;;;80.80;22.83;;;;;;;;;;4993169;28;90031;-68
2022/01/13 01:54:19;;;;;;;93.95;21.00;;;;;;;;;;4993478;28;89827;-68
2022/01/13 01:56:45;;;;;;;111.22;22.08;;;;;;;;;;5002957;28;91884;-68
2022/01/13 01:59:15;;;;;;;113.30;23.23;;;;;;;;;;4993260;28;89389;-68
2022/01/13 02:01:45;;;;;;;99.10;23.95;;;;;;;;;;4996374;28;90129;-68
2022/01/13 02:04:12;;;;;;;128.40;22.77;;;;;;;;;;4996697;28;90520;-68
2022/01/13 02:06:39;;;;;;;145.15;22.73;;;;;;;;;;4994300;28;89115;-67
2022/01/13 02:09:06;;;;;;;96.32;22.20;;;;;;;;;;4994882;28;90739;-68
2022/01/13 02:11:42;;;;;;;146.20;25.58;;;;;;;;;;4994658;28;90326;-68
2022/01/13 02:14:30;;;;;;;113.07;22.48;;;;;;;;;;4991105;28;90096;-68
2022/01/13 02:17:04;;;;;;;89.82;22.15;;;;;;;;;;5000681;28;90158;-68
2022/01/13 02:19:35;;;;;;;133.80;24.55;;;;;;;;;;4996203;28;90163;-68
2022/01/13 02:22:02;;;;;;;86.78;20.23;;;;;;;;;;4993388;28;90239;-68
2022/01/13 02:24:28;;;;;;;179.23;25.23;;;;;;;;;;4998163;28;90504;-68
2022/01/13 02:26:55;;;;;;;135.25;22.92;;;;;;;;;;4993440;28;89740;-68
2022/01/13 02:29:21;;;;;;;116.22;22.23;;;;;;;;;;4993689;28;89936;-68
2022/01/13 02:31:47;;;;;;;179.23;23.65;;;;;;;;;;4993332;28;90287;-68
2022/01/13 02:34:14;;;;;;;137.52;23.60;;;;;;;;;;4992287;28;89788;-68
2022/01/13 02:36:42;;;;;;;170.93;24.95;;;;;;;;;;4994344;28;91085;-69
2022/01/13 02:39:08;;;;;;;168.43;24.83;;;;;;;;;;4994135;28;91296;-68
2022/01/13 02:41:34;;;;;;;148.95;25.90;;;;;;;;;;4996900;28;89803;-68
2022/01/13 02:44:01;;;;;;;128.45;24.63;;;;;;;;;;4992322;28;89430;-68
2022/01/13 02:49:04;;;;;;;124.05;23.55;;;;;;;;;;4992887;28;89801;-68
2022/01/13 02:51:31;;;;;;;102.22;23.55;;;;;;;;;;4994439;28;90426;-68
2022/01/13 02:53:58;;;;;;;173.30;25.83;;;;;;;;;;5002434;28;89124;-68
2022/01/13 02:56:24;;;;;;;151.55;23.92;;;;;;;;;;4993652;28;91184;-68
2022/01/13 02:58:50;;;;;;;172.73;26.05;;;;;;;;;;4992716;28;90383;-68
2022/01/13 03:01:17;;;;;;;189.60;25.63;;;;;;;;;;4998506;28;90489;-68
2022/01/13 03:03:44;;;;;;;205.52;25.33;;;;;;;;;;4996263;28;90672;-68
2022/01/13 03:06:12;;;;;;;177.73;27.05;;;;;;;;;;4993948;28;89058;-68
2022/01/13 03:08:39;;;;;;;133.88;23.27;;;;;;;;;;4996191;28;90390;-68
2022/01/13 03:11:06;;;;;;;98.82;22.42;;;;;;;;;;4994330;28;90462;-68
2022/01/13 03:13:33;;;;;;;149.00;22.52;;;;;;;;;;4993251;28;91402;-68
2022/01/13 03:16:03;;;;;;;164.63;24.60;;;;;;;;;;4998139;28;91102;-68
2022/01/13 03:18:30;;;;;;;181.73;23.65;;;;;;;;;;4993444;28;90301;-67
2022/01/13 03:20:56;;;;;;;181.00;23.90;;;;;;;;;;4993204;28;89762;-68
2022/01/13 03:23:22;;;;;;;194.50;25.13;;;;;;;;;;4993125;28;90577;-68
2022/01/13 03:25:49;;;;;;;166.68;23.20;;;;;;;;;;4996162;28;90386;-68
2022/01/13 03:28:18;;;;;;;174.75;23.95;;;;;;;;;;4992983;28;92867;-68
2022/01/13 03:30:44;;;;;;;189.75;25.05;;;;;;;;;;4992195;28;89597;-68
2022/01/13 03:33:12;;;;;;;146.60;21.15;;;;;;;;;;4995470;28;89465;-68
2022/01/13 03:35:39;;;;;;;271.15;25.98;;;;;;;;;;4991797;28;89846;-68
2022/01/13 03:38:06;;;;;;;188.05;23.95;;;;;;;;;;4998145;28;89415;-68
2022/01/13 03:40:33;;;;;;;158.90;22.98;;;;;;;;;;4992845;28;89872;-68
2022/01/13 03:43:01;;;;;;;149.52;22.73;;;;;;;;;;4994049;28;91229;-67
2022/01/13 03:45:28;;;;;;;240.57;25.42;;;;;;;;;;4995041;28;90054;-67
2022/01/13 03:47:55;;;;;;;203.45;25.58;;;;;;;;;;5002666;28;89827;-67
2022/01/13 03:50:21;;;;;;;148.93;23.75;;;;;;;;;;4994727;28;89601;-68
2022/01/13 03:53:13;;;;;;;207.10;24.13;;;;;;;;;;4993605;28;89168;-68
2022/01/13 03:55:58;;;;;;;204.32;24.52;;;;;;;;;;5001902;28;91063;-67
2022/01/13 03:58:43;;;;;;;212.88;25.58;;;;;;;;;;4988919;28;90349;-67
2022/01/13 04:01:30;;;;;;;213.27;27.27;;;;;;;;;;4995455;28;89703;-68
2022/01/13 04:03:57;;;;;;;260.63;28.48;;;;;;;;;;5000972;28;90003;-68
2022/01/13 04:06:23;;;;;;;256.67;29.27;;;;;;;;;;4995826;28;89710;-68
2022/01/13 04:08:51;;;;;;;142.13;26.50;;;;;;;;;;5005980;28;90758;-68
2022/01/13 04:11:21;;;;;;;215.40;28.08;;;;;;;;;;4996484;28;90456;-68
2022/01/13 04:16:20;;;;;;;264.65;31.65;;;;;;;;;;4995485;28;90156;-68
2022/01/13 04:18:47;;;;;;;194.75;30.60;;;;;;;;;;5004231;28;89750;-67
2022/01/13 04:21:13;;;;;;;226.23;31.77;;;;;;;;;;5003916;28;89199;-68
2022/01/13 04:23:40;;;;;;;280.10;32.83;;;;;;;;;;4996005;28;91122;-67
2022/01/13 04:26:07;;;;;;;250.38;31.67;;;;;;;;;;4995443;28;89636;-68
2022/01/13 04:28:34;;;;;;;234.05;32.55;;;;;;;;;;4994963;28;89186;-68
2022/01/13 04:31:01;;;;;;;193.65;29.98;;;;;;;;;;4998546;28;89941;-67
2022/01/13 04:33:28;;;;;;;227.27;34.00;;;;;;;;;;4994349;28;89332;-68
2022/01/13 04:35:56;;;;;;;243.75;32.38;;;;;;;;;;4994522;28;91165;-69
2022/01/13 04:38:23;;;;;;;264.80;30.80;;;;;;;;;;4996452;28;89492;-67
2022/01/13 04:40:55;;;;;;;249.10;32.22;;;;;;;;;;4995142;28;90259;-67
2022/01/13 04:43:22;;;;;;;232.32;29.83;;;;;;;;;;4994450;28;90205;-67
2022/01/13 04:45:48;;;;;;;204.05;31.75;;;;;;;;;;4996101;28;89826;-68
2022/01/13 04:48:15;;;;;;;345.10;34.60;;;;;;;;;;4994921;28;90853;-68
2022/01/13 04:50:42;;;;;;;243.35;31.52;;;;;;;;;;4995440;28;90992;-68
2022/01/13 04:53:09;;;;;;;280.63;33.35;;;;;;;;;;4999944;28;89928;-68
2022/01/13 04:55:37;;;;;;;268.65;32.28;;;;;;;;;;4993460;28;90024;-68
2022/01/13 04:58:05;;;;;;;216.90;31.10;;;;;;;;;;4995358;28;89512;-68
2022/01/13 05:00:32;;;;;;;255.60;31.35;;;;;;;;;;4994645;28;89670;-68
2022/01/13 05:02:59;;;;;;;196.02;26.70;;;;;;;;;;4995645;28;90437;-68
2022/01/13 05:05:26;;;;;;;191.75;27.92;;;;;;;;;;4994129;28;89525;-68
2022/01/13 05:07:53;;;;;;;196.60;29.15;;;;;;;;;;4996691;28;90840;-68
2022/01/13 05:10:19;;;;;;;224.18;31.23;;;;;;;;;;4995923;28;90839;-68
2022/01/13 05:12:56;;;;;;;204.60;30.80;;;;;;;;;;4997356;28;90499;-68
2022/01/13 05:15:26;;;;;;;165.63;28.63;;;;;;;;;;4998396;28;89752;-68
2022/01/13 05:20:23;;;;;;;184.57;25.73;;;;;;;;;;4994846;28;89820;-69
2022/01/13 05:22:49;;;;;;;191.63;30.05;;;;;;;;;;4994604;28;90173;-68
2022/01/13 05:25:16;;;;;;;158.18;25.55;;;;;;;;;;4997895;28;90143;-68
2022/01/13 05:27:43;;;;;;;230.23;30.20;;;;;;;;;;4995375;28;90246;-69
2022/01/13 05:30:09;;;;;;;164.55;26.25;;;;;;;;;;4994628;28;91365;-68
2022/01/13 05:32:36;;;;;;;187.98;27.25;;;;;;;;;;4994329;28;90317;-68
2022/01/13 05:35:02;;;;;;;152.10;27.13;;;;;;;;;;4995690;28;89075;-68
2022/01/13 05:37:30;;;;;;;175.68;29.10;;;;;;;;;;4998385;28;89337;-68
2022/01/13 05:39:57;;;;;;;133.52;26.50;;;;;;;;;;4996169;28;89330;-68
2022/01/13 05:42:23;;;;;;;133.45;25.42;;;;;;;;;;4999410;28;90272;-68
2022/01/13 05:44:50;;;;;;;247.32;29.33;;;;;;;;;;4995122;28;90937;-68
2022/01/13 05:47:16;;;;;;;213.43;30.02;;;;;;;;;;4993041;28;89068;-68
2022/01/13 05:49:43;;;;;;;193.10;27.77;;;;;;;;;;4995112;28;89921;-68
2022/01/13 05:52:11;;;;;;;192.50;27.15;;;;;;;;;;4993584;28;89719;-68
2022/01/13 05:54:37;;;;;;;190.70;28.40;;;;;;;;;;4994534;28;90130;-68
2022/01/13 05:57:04;;;;;;;180.77;27.67;;;;;;;;;;4999318;28;90181;-68
2022/01/13 05:59:31;;;;;;;248.00;31.02;;;;;;;;;;4997838;28;89678;-68
2022/01/13 06:01:57;;;;;;;246.73;30.45;;;;;;;;;;4995578;28;90989;-68
2022/01/13 06:04:24;;;;;;;151.18;26.50;;;;;;;;;;4993209;28;90931;-68
2022/01/13 06:06:50;;;;;;;263.35;31.50;;;;;;;;;;4993746;28;89473;-68
2022/01/13 06:09:17;;;;;;;266.67;30.50;;;;;;;;;;4998297;28;89098;-68
2022/01/13 06:11:52;;;;;;;245.60;31.27;;;;;;;;;;4996991;28;89624;-68
2022/01/13 06:14:18;;;;;;;192.43;29.42;;;;;;;;;;4993481;28;89771;-69
2022/01/13 06:16:45;;;;;;;194.07;29.42;;;;;;;;;;4992789;28;91259;-68
2022/01/13 06:19:11;;;;;;;216.90;29.02;;;;;;;;;;4995772;28;89465;-68
2022/01/13 06:21:37;;;;;;;246.80;28.55;;;;;;;;;;4992667;28;91214;-69
2022/01/13 06:24:04;;;;;;;192.40;28.90;;;;;;;;;;4994666;28;89856;-68
2022/01/13 06:26:30;;;;;;;160.70;27.40;;;;;;;;;;4992592;28;89099;-68
2022/01/13 06:28:57;;;;;;;142.73;26.73;;;;;;;;;;5002738;28;90593;-68
2022/01/13 06:31:23;;;;;;;215.38;29.38;;;;;;;;;;4993471;28;90508;-67
2022/01/13 06:33:49;;;;;;;255.10;30.85;;;;;;;;;;4996227;28;89699;-68
2022/01/13 06:36:16;;;;;;;219.95;31.15;;;;;;;;;;4993989;28;90835;-68
2022/01/13 06:38:42;;;;;;;213.60;30.55;;;;;;;;;;4994747;28;90671;-68
2022/01/13 06:41:09;;;;;;;225.90;30.77;;;;;;;;;;4996009;28;90709;-68
2022/01/13 06:43:36;;;;;;;236.98;31.48;;;;;;;;;;4993551;28;89905;-67
2022/01/13 06:46:03;;;;;;;252.55;33.10;;;;;;;;;;4993684;28;90399;-68
2022/01/13 06:48:29;;;;;;;144.98;29.65;;;;;;;;;;4998490;28;90062;-68
2022/01/13 06:50:55;;;;;;;272.40;33.30;;;;;;;;;;4990243;28;89482;-68
2022/01/13 06:53:22;;;;;;;174.82;29.00;;;;;;;;;;4993133;28;90224;-68
2022/01/13 06:55:49;;;;;;;191.18;30.50;;;;;;;;;;4991154;28;90868;-68
2022/01/13 06:58:15;;;;;;;164.88;30.20;;;;;;;;;;4993259;28;89224;-68
2022/01/13 07:00:41;;;;;;;164.93;31.75;;;;;;;;;;4994278;28;89233;-68
2022/01/13 07:03:09;;;;;;;163.70;29.13;;;;;;;;;;4997606;28;91648;-70
2022/01/13 07:05:35;;;;;;;148.38;28.83;;;;;;;;;;4993326;28;89303;-68
2022/01/13 07:08:02;;;;;;;181.32;27.90;;;;;;;;;;4993234;28;89959;-70
2022/01/13 07:10:28;;;;;;;163.52;29.23;;;;;;;;;;4993869;28;89658;-69
2022/01/13 07:12:55;;;;;;;197.02;29.02;;;;;;;;;;4994191;28;89958;-69
2022/01/13 07:15:25;;;;;;;236.68;30.27;;;;;;;;;;4992773;28;91035;-68
2022/01/13 07:17:52;;;;;;;169.55;27.80;;;;;;;;;;4994460;28;90453;-68
2022/01/13 07:20:18;;;;;;;242.35;31.73;;;;;;;;;;4994533;28;90355;-68
2022/01/13 07:22:44;;;;;;;240.63;31.15;;;;;;;;;;4989739;28;91200;-68
2022/01/13 07:25:11;;;;;;;179.02;29.27;;;;;;;;;;4997422;28;90023;-68
2022/01/13 07:27:38;;;;;;;218.38;28.58;;;;;;;;;;4992357;28;91743;-69
2022/01/13 07:30:05;;;;;;;165.93;25.02;;;;;;;;;;4994344;28;90741;-68
2022/01/13 07:32:31;;;;;;;180.40;29.35;;;;;;;;;;4993922;28;90189;-68
2022/01/13 07:34:57;;;;;;;133.90;26.80;;;;;;;;;;4993322;28;91463;-68
2022/01/13 07:37:24;;;;;;;144.45;23.73;;;;;;;;;;4997618;28;90445;-68
2022/01/13 07:39:50;;;;;;;125.75;26.42;;;;;;;;;;4993634;28;89611;-68
2022/01/13 07:42:17;;;;;;;121.78;23.77;;;;;;;;;;4995928;28;90947;-69
2022/01/13 07:44:43;;;;;;;141.02;26.25;;;;;;;;;;4998198;28;90479;-68
2022/01/13 07:47:10;;;;;;;119.40;24.77;;;;;;;;;;5002767;28;90025;-68
2022/01/13 07:49:36;;;;;;;122.15;25.35;;;;;;;;;;4999233;28;90516;-68
2022/01/13 07:52:03;;;;;;;142.77;25.15;;;;;;;;;;5003425;28;89897;-69
2022/01/13 07:54:31;;;;;;;101.35;23.92;;;;;;;;;;4997913;28;91305;-68
2022/01/13 07:57:00;;;;;;;149.27;25.67;;;;;;;;;;4998555;28;89426;-68
2022/01/13 07:59:28;;;;;;;185.13;29.05;;;;;;;;;;4995584;28;89780;-69
2022/01/13 08:01:55;;;;;;;138.15;26.13;;;;;;;;;;4995796;28;91151;-69
2022/01/13 08:04:22;;;;;;;116.32;26.00;;;;;;;;;;5003036;28;90806;-69
2022/01/13 08:06:48;;;;;;;117.57;25.58;;;;;;;;;;4993716;28;89693;-69
2022/01/13 08:09:20;;;;;;;109.07;24.50;;;;;;;;;;4998928;28;89462;-69
2022/01/13 08:11:46;;;;;;;127.85;26.77;;;;;;;;;;4996668;28;90510;-69
2022/01/13 08:14:13;;;;;;;133.73;27.10;;;;;;;;;;4995561;28;89372;-69
2022/01/13 08:16:43;;;;;;;114.28;26.40;;;;;;;;;;4997305;28;90549;-69
2022/01/13 08:21:54;;;;;;;94.65;24.58;;;;;;;;;;4995395;28;90085;-69
2022/01/13 08:24:21;;;;;;;86.13;24.25;;;;;;;;;;4996101;28;91506;-69
2022/01/13 08:26:47;;;;;;;116.72;25.45;;;;;;;;;;4993296;28;89248;-69
2022/01/13 08:29:15;;;;;;;120.78;27.23;;;;;;;;;;4996946;28;89680;-69
2022/01/13 08:31:41;;;;;;;115.78;25.27;;;;;;;;;;5007618;28;89170;-69
2022/01/13 08:34:08;;;;;;;105.90;26.40;;;;;;;;;;5001125;28;90410;-69
2022/01/13 08:36:34;;;;;;;113.20;27.00;;;;;;;;;;4997861;28;89711;-69
2022/01/13 08:39:01;;;;;;;106.20;26.05;;;;;;;;;;5000372;28;91292;-67
2022/01/13 08:41:28;;;;;;;93.32;25.30;;;;;;;;;;4997482;28;90132;-68
2022/01/13 08:43:55;;;;;;;109.60;26.13;;;;;;;;;;4998920;28;89671;-68
2022/01/13 08:46:21;;;;;;;106.45;26.13;;;;;;;;;;4999465;28;89953;-68
2022/01/13 08:48:51;;;;;;;110.47;26.27;;;;;;;;;;5002437;28;89870;-68
2022/01/13 08:51:18;;;;;;;97.22;26.27;;;;;;;;;;5003946;28;89365;-69
2022/01/13 08:53:45;;;;;;;97.63;26.58;;;;;;;;;;4996390;28;89674;-68
2022/01/13 08:56:12;;;;;;;128.57;27.85;;;;;;;;;;5000556;28;89677;-69
2022/01/13 08:58:38;;;;;;;114.88;29.30;;;;;;;;;;5002751;28;89245;-69
2022/01/13 09:01:07;;;;;;;42.38;19.05;;;;;;;;;;5003038;28;90917;-70
2022/01/13 09:03:34;;;;;;;57.55;22.17;;;;;;;;;;4996880;28;90931;-69
2022/01/13 09:06:00;;;;;;;96.43;23.73;;;;;;;;;;4996456;28;90140;-69
2022/01/13 09:08:28;;;;;;;70.63;24.27;;;;;;;;;;4982097;28;89020;-69
2022/01/13 09:10:54;;;;;;;82.28;24.08;;;;;;;;;;4986864;28;89903;-69
2022/01/13 09:13:21;;;;;;;74.07;23.80;;;;;;;;;;4994871;28;89818;-69
2022/01/13 09:15:57;;;;;;;85.72;26.17;;;;;;;;;;4991754;28;90307;-68
2022/01/13 09:18:47;;;;;;;71.57;20.70;;;;;;;;;;4993411;28;89408;-69
2022/01/13 09:21:15;;;;;;;71.22;23.05;;;;;;;;;;4990457;28;91033;-68
2022/01/13 09:23:42;;;;;;;76.45;24.95;;;;;;;;;;5003647;28;90713;-70
2022/01/13 09:26:08;;;;;;;75.57;24.95;;;;;;;;;;4990942;28;90235;-68
2022/01/13 09:28:35;;;;;;;64.13;24.38;;;;;;;;;;4995138;28;91318;-69
2022/01/13 09:31:01;;;;;;;86.43;24.90;;;;;;;;;;4994209;28;90532;-69
2022/01/13 09:33:27;;;;;;;74.82;24.58;;;;;;;;;;4995322;28;90466;-69
2022/01/13 09:35:54;;;;;;;69.72;25.17;;;;;;;;;;4995119;28;90911;-69
2022/01/13 09:38:20;;;;;;;58.80;21.40;;;;;;;;;;5014997;28;89254;-69
2022/01/13 09:40:48;;;;;;;63.88;22.02;;;;;;;;;;5006480;28;91225;-69
2022/01/13 09:43:15;;;;;;;97.53;25.92;;;;;;;;;;5015231;28;90432;-69
2022/01/13 09:45:41;;;;;;;69.88;22.63;;;;;;;;;;4997331;28;89349;-69
2022/01/13 09:48:08;;;;;;;65.82;23.42;;;;;;;;;;4995362;28;89009;-69
2022/01/13 09:50:34;;;;;;;83.70;24.00;;;;;;;;;;4994953;28;90870;-69
2022/01/13 09:53:00;;;;;;;81.65;24.88;;;;;;;;;;5003499;28;89049;-69
2022/01/13 09:55:27;;;;;;;83.18;26.45;;;;;;;;;;5004870;28;90335;-69
2022/01/13 09:57:55;;;;;;;68.47;23.33;;;;;;;;;;4997870;28;90522;-69
2022/01/13 10:00:24;;;;;;;63.20;22.38;;;;;;;;;;4985044;28;90101;-69
2022/01/13 10:02:51;;;;;;;62.90;23.60;;;;;;;;;;4996945;28;92643;-69
2022/01/13 10:05:19;;;;;;;75.43;25.17;;;;;;;;;;4995003;28;89913;-69
2022/01/13 10:07:47;;;;;;;83.78;25.83;;;;;;;;;;4997892;28;89733;-69
2022/01/13 10:10:25;;;;;;;58.40;21.80;;;;;;;;;;4988063;28;89650;-69
2022/01/13 10:13:04;;;;;;;64.57;22.55;;;;;;;;;;4997745;28;89963;-69
2022/01/13 10:18:36;;;;;;;75.65;26.05;;;;;;;;;;4997429;28;90298;-67
2022/01/13 10:21:07;;;;;;;57.97;23.60;;;;;;;;;;4992867;28;90601;-68
2022/01/13 10:23:33;;;;;;;72.38;23.45;;;;;;;;;;4992165;28;90020;-68
2022/01/13 10:26:12;;;;;;;63.35;24.45;;;;;;;;;;4994311;28;90612;-68
2022/01/13 10:28:39;;;;;;;74.03;23.88;;;;;;;;;;4998931;28;90938;-69
2022/01/13 10:31:05;;;;;;;83.45;24.10;;;;;;;;;;4995293;28;90874;-68
2022/01/13 10:33:34;;;;;;;72.53;22.05;;;;;;;;;;4982127;28;90074;-68
2022/01/13 10:36:08;;;;;;;61.72;22.00;;;;;;;;;;4992222;28;90072;-69
2022/01/13 10:38:51;;;;;;;66.93;23.95;;;;;;;;;;4994490;28;90399;-68
2022/01/13 10:41:38;;;;;;;112.65;25.80;;;;;;;;;;5002037;28;89948;-69
2022/01/13 10:44:14;;;;;;;82.95;24.60;;;;;;;;;;5000012;28;90908;-69
2022/01/13 10:47:01;;;;;;;91.72;25.25;;;;;;;;;;4995795;28;89925;-69
2022/01/13 10:49:34;;;;;;;104.07;23.88;;;;;;;;;;4986584;28;91932;-68
2022/01/13 10:52:23;;;;;;;89.40;25.00;;;;;;;;;;4998211;28;91974;-69
2022/01/13 10:54:51;;;;;;;63.53;22.80;;;;;;;;;;4989162;28;89112;-69
2022/01/13 10:57:20;;;;;;;67.45;23.60;;;;;;;;;;4997270;28;90341;-69
2022/01/13 10:59:46;;;;;;;71.22;22.33;;;;;;;;;;4992656;28;90337;-69
2022/01/13 11:02:13;;;;;;;79.57;25.88;;;;;;;;;;4993454;28;90280;-69
2022/01/13 11:04:40;;;;;;;71.20;24.10;;;;;;;;;;4996002;28;91213;-69
2022/01/13 11:07:16;;;;;;;92.80;25.63;;;;;;;;;;4993819;28;91278;-69
2022/01/13 11:09:50;;;;;;;86.18;25.35;;;;;;;;;;4987274;28;90768;-68
2022/01/13 11:12:17;;;;;;;79.63;21.83;;;;;;;;;;4994871;28;90659;-69
2022/01/13 11:14:45;;;;;;;91.97;24.35;;;;;;;;;;4992651;28;89415;-69
2022/01/13 11:17:11;;;;;;;89.65;25.40;;;;;;;;;;4996867;28;90309;-69
2022/01/13 11:19:44;;;;;;;80.72;26.90;;;;;;;;;;4992809;28;90007;-70
2022/01/13 11:22:11;;;;;;;80.03;24.30;;;;;;;;;;4993353;28;89521;-69
2022/01/13 11:24:38;;;;;;;81.13;24.63;;;;;;;;;;4992564;28;93146;-69
2022/01/13 11:27:05;;;;;;;68.72;24.15;;;;;;;;;;4999692;28;90565;-69
2022/01/13 11:29:33;;;;;;;73.82;23.08;;;;;;;;;;4992515;28;91413;-69
2022/01/13 11:32:01;;;;;;;98.35;27.73;;;;;;;;;;5002772;28;90624;-70
2022/01/13 11:34:28;;;;;;;82.80;25.17;;;;;;;;;;5004699;28;89139;-69
2022/01/13 11:36:54;;;;;;;96.63;27.17;;;;;;;;;;4995480;28;90994;-69
2022/01/13 11:39:37;;;;;;;72.55;23.38;;;;;;;;;;5002121;28;90205;-69
2022/01/13 11:42:09;;;;;;;70.55;24.45;;;;;;;;;;4996614;28;90029;-69
2022/01/13 11:44:36;;;;;;;67.38;23.63;;;;;;;;;;5002780;28;91241;-69
2022/01/13 11:47:08;;;;;;;87.97;26.48;;;;;;;;;;5001874;28;89774;-69
2022/01/13 11:49:57;;;;;;;100.97;25.67;;;;;;;;;;5000478;28;90020;-69
2022/01/13 11:52:40;;;;;;;95.63;27.20;;;;;;;;;;5002774;28;90140;-69
2022/01/13 11:55:18;;;;;;;66.25;24.73;;;;;;;;;;4996533;28;89206;-69
2022/01/13 11:58:14;;;;;;;76.70;26.38;;;;;;;;;;5002657;28;91199;-69
2022/01/13 12:00:42;;;;;;;69.20;26.30;;;;;;;;;;4999448;28;91490;-69
2022/01/13 12:03:21;;;;;;;85.93;27.60;;;;;;;;;;5002798;28;90097;-70
2022/01/13 12:05:48;;;;;;;105.38;27.77;;;;;;;;;;5003127;28;91026;-69
2022/01/13 12:08:34;;;;;;;84.80;26.90;;;;;;;;;;5001059;28;90391;-68
2022/01/13 12:11:00;;;;;;;77.57;26.42;;;;;;;;;;4994353;28;89335;-69
2022/01/13 12:13:40;;;;;;;108.07;27.35;;;;;;;;;;5000656;28;91018;-69
2022/01/13 12:16:08;;;;;;;95.43;26.02;;;;;;;;;;4997971;28;89708;-68
2022/01/13 12:18:52;;;;;;;139.70;26.92;;;;;;;;;;5000515;28;89821;-68
2022/01/13 12:21:26;;;;;;;111.43;26.40;;;;;;;;;;5001778;28;91200;-68
2022/01/13 12:23:53;;;;;;;101.25;26.02;;;;;;;;;;5000017;28;90521;-68
2022/01/13 12:26:31;;;;;;;71.10;25.13;;;;;;;;;;5003647;28;90406;-68
2022/01/13 12:29:11;;;;;;;72.65;24.90;;;;;;;;;;5001914;28;89700;-68
2022/01/13 12:31:56;;;;;;;81.88;24.42;;;;;;;;;;5000794;28;89220;-68
2022/01/13 12:34:28;;;;;;;76.75;25.30;;;;;;;;;;5006591;28;89934;-68
2022/01/13 12:36:55;;;;;;;65.72;22.75;;;;;;;;;;4994364;28;89600;-69
2022/01/13 12:39:22;;;;;;;63.13;22.02;;;;;;;;;;5005297;28;90934;-69
2022/01/13 12:41:58;;;;;;;67.40;22.63;;;;;;;;;;5006081;28;90084;-68
2022/01/13 12:47:13;;;;;;;73.78;24.65;;;;;;;;;;4995037;28;90958;-68
2022/01/13 12:49:49;;;;;;;69.20;22.48;;;;;;;;;;4996564;28;89248;-69
2022/01/13 12:52:19;;;;;;;52.00;21.63;;;;;;;;;;4993335;28;89059;-69
2022/01/13 12:54:45;;;;;;;49.72;21.38;;;;;;;;;;5000566;28;90038;-69
2022/01/13 12:57:12;;;;;;;51.03;23.13;;;;;;;;;;5000088;28;89941;-68
2022/01/13 12:59:38;;;;;;;54.13;23.35;;;;;;;;;;4988767;28;91519;-68
2022/01/13 13:02:05;;;;;;;40.08;19.75;;;;;;;;;;4998800;28;90426;-69
2022/01/13 13:04:35;;;;;;;45.67;21.10;;;;;;;;;;5000179;28;89777;-69
2022/01/13 13:07:02;;;;;;;58.90;22.92;;;;;;;;;;4994666;28;90860;-69
2022/01/13 13:09:30;;;;;;;53.60;22.05;;;;;;;;;;4998983;28;90805;-68
2022/01/13 13:12:01;;;;;;;42.17;21.30;;;;;;;;;;5000228;28;89247;-68
2022/01/13 13:15:38;;;;;;;41.55;21.90;;;;;;;;;;4985955;28;90813;-68
2022/01/13 13:17:31;;;;;;;48.60;22.10;;;;;;;;;;4994769;28;89374;-68
2022/01/13 13:19:57;;;;;;;45.08;21.90;;;;;;;;;;4998678;28;89912;-70
2022/01/13 13:22:24;;;;;;;44.88;21.52;;;;;;;;;;4993665;28;89239;-68
2022/01/13 13:24:50;;;;;;;45.65;22.08;;;;;;;;;;4993658;28;90589;-68
2022/01/13 13:27:27;;;;;;;51.28;24.42;;;;;;;;;;4993825;28;91588;-68
2022/01/13 13:29:53;;;;;;;48.92;24.40;;;;;;;;;;4989110;28;89415;-68
2022/01/13 13:32:20;;;;;;;44.33;19.92;;;;;;;;;;4995411;28;91413;-69
2022/01/13 13:34:47;;;;;;;48.83;23.42;;;;;;;;;;4994639;28;89978;-68
2022/01/13 13:37:14;;;;;;;52.25;24.25;;;;;;;;;;4997774;28;90729;-68
2022/01/13 13:39:40;;;;;;;52.60;23.05;;;;;;;;;;4995071;28;90437;-68
2022/01/13 13:42:09;;;;;;;39.13;22.75;;;;;;;;;;4998253;28;90880;-68
2022/01/13 13:44:38;;;;;;;45.00;22.20;;;;;;;;;;4995115;28;90063;-69
2022/01/13 13:47:11;;;;;;;46.97;22.15;;;;;;;;;;4994979;28;90157;-68
2022/01/13 13:49:38;;;;;;;44.90;22.50;;;;;;;;;;4994105;28;89170;-68
2022/01/13 13:52:05;;;;;;;40.03;21.48;;;;;;;;;;4995284;28;89051;-68
2022/01/13 13:54:36;;;;;;;46.22;24.15;;;;;;;;;;4994938;28;90483;-68
2022/01/13 13:57:04;;;;;;;42.28;22.23;;;;;;;;;;4987725;28;89504;-68
2022/01/13 13:59:36;;;;;;;40.83;21.50;;;;;;;;;;4994580;28;89125;-67
2022/01/13 14:02:03;;;;;;;41.85;22.63;;;;;;;;;;4994468;28;90128;-67
2022/01/13 14:04:33;;;;;;;40.88;21.48;;;;;;;;;;4996704;28;89684;-67
2022/01/13 14:07:00;;;;;;;41.25;22.67;;;;;;;;;;4994926;28;90098;-67
2022/01/13 14:09:36;;;;;;;49.47;23.73;;;;;;;;;;4994257;28;90560;-67
2022/01/13 14:12:03;;;;;;;55.35;23.63;;;;;;;;;;4994892;28;91686;-67
2022/01/13 14:14:34;;;;;;;49.03;24.65;;;;;;;;;;4995390;28;91673;-68
2022/01/13 14:17:02;;;;;;;49.70;25.20;;;;;;;;;;4994265;28;90661;-68
2022/01/13 14:19:28;;;;;;;54.85;25.23;;;;;;;;;;4994714;28;90451;-68
2022/01/13 14:21:57;;;;;;;55.33;25.63;;;;;;;;;;4993924;28;90647;-68
2022/01/13 14:24:30;;;;;;;61.97;25.63;;;;;;;;;;4993854;28;89729;-68
2022/01/13 14:27:06;;;;;;;56.22;27.45;;;;;;;;;;4996519;28;89126;-68
2022/01/13 14:29:33;;;;;;;54.85;26.92;;;;;;;;;;4994003;28;89181;-68
2022/01/13 14:32:14;;;;;;;51.28;24.45;;;;;;;;;;4993222;28;89082;-68
2022/01/13 14:34:47;;;;;;;59.65;27.50;;;;;;;;;;4994767;28;90712;-67
2022/01/13 14:37:14;;;;;;;61.22;26.58;;;;;;;;;;4993817;28;89839;-69
2022/01/13 14:39:40;;;;;;;51.03;25.45;;;;;;;;;;4993721;28;90309;-69
2022/01/13 14:42:10;;;;;;;43.60;25.45;;;;;;;;;;4994532;28;90170;-67
2022/01/13 14:44:37;;;;;;;46.10;24.48;;;;;;;;;;4993497;28;90680;-69
2022/01/13 14:47:07;;;;;;;49.38;26.25;;;;;;;;;;4997230;28;89974;-67
2022/01/13 14:49:35;;;;;;;47.50;26.00;;;;;;;;;;4993860;28;90682;-67
2022/01/13 14:52:04;;;;;;;46.63;25.40;;;;;;;;;;4993694;28;89883;-67
2022/01/13 14:54:31;;;;;;;50.30;24.67;;;;;;;;;;4987027;28;89759;-67
2022/01/13 14:56:58;;;;;;;54.70;26.23;;;;;;;;;;4994302;28;90411;-66
2022/01/13 14:59:25;;;;;;;47.90;24.60;;;;;;;;;;4993512;28;90797;-69